createdAt,value
2018-06-14T00:02:09.436Z,98435.89
2018-06-14T00:07:31.295Z,98436.85
2018-06-14T00:10:10.019Z,98436.55
2018-06-14T00:13:02.868Z,98435.84
2018-06-14T00:18:44.880Z,98435.06
2018-06-14T00:21:27.093Z,98438.77
2018-06-14T00:24:11.555Z,98437.19
2018-06-14T00:29:37.172Z,98432.13
2018-06-14T00:35:22.951Z,98427.87
2018-06-14T00:38:02.081Z,98425.50
2018-06-14T00:40:44.893Z,98423.77
2018-06-14T01:38:56.720Z,98420.09
2018-06-14T01:41:33.657Z,98420.66
2018-06-14T01:44:15.388Z,98412.11
2018-06-14T01:47:01.153Z,98412.83
2018-06-14T01:49:43.536Z,98408.70
2018-06-14T01:52:26.362Z,98403.56
2018-06-14T01:57:57.814Z,98403.04
2018-06-14T02:00:29.726Z,98405.38
2018-06-14T02:03:04.709Z,98401.05
2018-06-14T02:05:43.331Z,98406.17
2018-06-14T04:27:53.636Z,98414.52
2018-06-14T04:30:30.077Z,98417.05
2018-06-14T04:33:15.283Z,98405.28
2018-06-14T04:41:26.158Z,98401.97
2018-06-14T04:44:03.676Z,98405.52
2018-06-14T04:46:48.494Z,98401.23
2018-06-14T04:49:23.708Z,98404.63
2018-06-14T04:54:44.741Z,98409.53
2018-06-14T04:57:31.905Z,98409.36
2018-06-14T05:02:57.550Z,98414.11
2018-06-14T05:05:33.207Z,98404.36
2018-06-14T05:08:12.186Z,98409.74
2018-06-14T05:10:51.207Z,98403.23
2018-06-14T05:13:39.688Z,98406.97
2018-06-14T05:16:34.717Z,98409.51
2018-06-14T05:19:38.826Z,98417.69
2018-06-14T05:25:12.353Z,98420.03
2018-06-14T05:28:01.723Z,98419.98
2018-06-14T05:33:37.497Z,98413.41
2018-06-14T05:36:28.316Z,98411.45
2018-06-14T05:39:07.328Z,98419.90
2018-06-14T05:41:57.414Z,98420.38
2018-06-14T05:47:26.196Z,98415.81
2018-06-14T05:50:12.036Z,98418.84
2018-06-14T05:52:49.955Z,98427.09
2018-06-14T05:55:18.741Z,98420.93
2018-06-14T05:57:47.366Z,98432.87
2018-06-14T06:00:19.340Z,98427.31
2018-06-14T06:02:52.393Z,98427.43
2018-06-14T06:05:21.811Z,98423.31
2018-06-14T06:07:50.912Z,98426.30
2018-06-14T06:10:19.749Z,98418.48
2018-06-14T06:12:48.410Z,98416.46
2018-06-14T06:18:32.120Z,98414.40
2018-06-14T06:21:04.579Z,98413.26
2018-06-14T06:23:33.216Z,98418.34
2018-06-14T06:26:02.260Z,98420.02
2018-06-14T06:28:31.292Z,98416.66
2018-06-14T06:30:59.942Z,98419.70
2018-06-14T06:33:30.476Z,98422.31
2018-06-14T06:35:59.067Z,98425.96
2018-06-14T06:38:28.138Z,98422.38
2018-06-14T06:40:57.011Z,98426.28
2018-06-14T06:43:26.195Z,98427.44
2018-06-14T06:45:55.419Z,98422.31
2018-06-14T06:48:25.221Z,98419.95
2018-06-14T06:50:54.145Z,98416.30
2018-06-14T06:53:23.534Z,98417.45
2018-06-14T06:55:52.588Z,98411.55
2018-06-14T06:58:21.384Z,98409.23
2018-06-14T07:00:50.925Z,98404.08
2018-06-14T07:03:20.393Z,98410.57
2018-06-14T07:05:49.125Z,98408.31
2018-06-14T07:08:19.571Z,98415.42
2018-06-14T07:10:49.866Z,98418.09
2018-06-14T07:13:19.132Z,98413.47
2018-06-14T07:15:50.108Z,98409.09
2018-06-14T07:18:20.140Z,98409.73
2018-06-14T07:20:49.773Z,98399.34
2018-06-14T07:23:21.177Z,98401.29
2018-06-14T07:25:51.909Z,98397.13
2018-06-14T07:28:21.620Z,98400.77
2018-06-14T07:30:51.279Z,98399.69
2018-06-14T07:33:20.620Z,98401.78
2018-06-14T07:35:50.143Z,98400.08
2018-06-14T07:38:19.173Z,98401.36
2018-06-14T07:40:49.176Z,98403.61
2018-06-14T07:43:18.776Z,98401.23
2018-06-14T07:45:47.984Z,98404.20
2018-06-14T07:48:17.090Z,98406.84
2018-06-14T07:50:46.020Z,98409.29
2018-06-14T07:53:15.213Z,98408.45
2018-06-14T07:55:44.308Z,98413.75
2018-06-14T07:58:14.880Z,98411.73
2018-06-14T08:00:44.433Z,98416.00
2018-06-14T08:03:13.233Z,98417.88
2018-06-14T08:05:43.052Z,98413.16
2018-06-14T08:08:14.073Z,98415.42
2018-06-14T08:10:42.987Z,98418.75
2018-06-14T08:13:12.170Z,98412.20
2018-06-14T08:15:41.217Z,98414.36
2018-06-14T08:18:10.562Z,98417.77
2018-06-14T08:20:40.119Z,98423.87
2018-06-14T08:23:09.867Z,98422.98
2018-06-14T08:25:39.278Z,98420.70
2018-06-14T08:28:09.118Z,98421.55
2018-06-14T08:30:39.011Z,98416.70
2018-06-14T08:33:08.341Z,98416.37
2018-06-14T08:35:37.924Z,98409.97
2018-06-14T08:38:07.079Z,98416.04
2018-06-14T08:40:36.549Z,98412.06
2018-06-14T08:43:05.897Z,98417.24
2018-06-14T08:45:35.319Z,98415.16
2018-06-14T08:48:04.642Z,98414.97
2018-06-14T08:50:33.730Z,98415.60
2018-06-14T08:53:02.895Z,98409.48
2018-06-14T08:55:32.517Z,98412.61
2018-06-14T08:58:02.098Z,98411.27
2018-06-14T09:00:31.804Z,98412.09
2018-06-14T09:03:01.510Z,98412.02
2018-06-14T09:05:31.427Z,98411.65
2018-06-14T09:08:01.878Z,98417.79
2018-06-14T09:10:30.831Z,98416.28
2018-06-14T09:13:00.030Z,98417.33
2018-06-14T09:15:28.934Z,98408.94
2018-06-14T09:17:58.309Z,98419.12
2018-06-14T09:20:27.609Z,98417.41
2018-06-14T09:22:56.655Z,98414.45
2018-06-14T09:25:25.797Z,98415.00
2018-06-14T09:27:54.930Z,98418.30
2018-06-14T09:30:24.439Z,98420.63
2018-06-14T09:32:53.989Z,98412.69
2018-06-14T09:35:24.069Z,98417.53
2018-06-14T09:37:53.717Z,98410.57
2018-06-14T09:40:23.401Z,98405.32
2018-06-14T09:42:52.246Z,98401.48
2018-06-14T09:45:21.155Z,98401.19
2018-06-14T09:47:50.180Z,98405.00
2018-06-14T09:50:20.087Z,98404.62
2018-06-14T09:52:51.937Z,98406.42
2018-06-14T09:55:21.654Z,98398.91
2018-06-14T09:57:51.052Z,98400.95
2018-06-14T10:00:19.831Z,98400.96
2018-06-14T10:02:48.580Z,98397.84
2018-06-14T10:05:19.994Z,98399.52
2018-06-14T10:07:49.215Z,98403.99
2018-06-14T10:10:19.107Z,98404.54
2018-06-14T10:12:52.497Z,98402.25
2018-06-14T10:15:22.041Z,98395.34
2018-06-14T10:17:51.082Z,98395.84
2018-06-14T10:20:19.911Z,98398.66
2018-06-14T10:22:49.200Z,98395.96
2018-06-14T10:25:18.136Z,98393.15
2018-06-14T10:27:46.885Z,98392.42
2018-06-14T10:30:15.622Z,98389.69
2018-06-14T10:32:44.433Z,98393.58
2018-06-14T10:35:13.334Z,98392.64
2018-06-14T10:37:42.294Z,98382.77
2018-06-14T10:40:11.258Z,98386.63
2018-06-14T10:42:40.709Z,98384.70
2018-06-14T10:45:09.718Z,98386.17
2018-06-14T10:47:38.676Z,98381.09
2018-06-14T10:50:07.294Z,98382.36
2018-06-14T10:52:36.153Z,98375.77
2018-06-14T10:55:05.686Z,98379.67
2018-06-14T10:57:34.749Z,98376.81
2018-06-14T11:00:05.100Z,98378.26
2018-06-14T11:02:34.017Z,98375.12
2018-06-14T11:05:02.929Z,98369.96
2018-06-14T11:07:31.741Z,98380.03
2018-06-14T11:10:00.507Z,98373.67
2018-06-14T11:12:29.391Z,98369.87
2018-06-14T11:14:58.116Z,98366.57
2018-06-14T11:17:26.953Z,98367.28
2018-06-14T11:19:55.837Z,98369.45
2018-06-14T11:22:24.830Z,98363.53
2018-06-14T11:24:57.854Z,98360.03
2018-06-14T11:27:26.661Z,98363.58
2018-06-14T11:29:55.593Z,98359.12
2018-06-14T11:32:25.701Z,98357.16
2018-06-14T11:34:54.953Z,98354.39
2018-06-14T11:37:24.740Z,98353.60
2018-06-14T11:39:53.712Z,98358.52
2018-06-14T11:42:23.501Z,98353.20
2018-06-14T11:44:53.695Z,98355.36
2018-06-14T11:47:23.624Z,98351.22
2018-06-14T11:49:52.952Z,98350.14
2018-06-14T11:52:22.213Z,98355.73
2018-06-14T11:54:52.012Z,98350.81
2018-06-14T11:57:21.140Z,98350.91
2018-06-14T11:59:51.227Z,98349.73
2018-06-14T12:02:21.095Z,98348.87
2018-06-14T12:04:51.864Z,98345.20
2018-06-14T12:07:20.498Z,98349.12
2018-06-14T12:09:49.205Z,98347.04
2018-06-14T12:12:19.160Z,98339.42
2018-06-14T12:14:47.877Z,98330.27
2018-06-14T12:17:16.492Z,98326.42
2018-06-14T12:19:45.216Z,98326.83
2018-06-14T12:22:14.062Z,98320.88
2018-06-14T12:24:42.760Z,98320.45
2018-06-14T12:27:11.514Z,98316.76
2018-06-14T12:29:40.259Z,98323.86
2018-06-14T12:32:09.153Z,98307.86
2018-06-14T12:34:37.978Z,98307.31
2018-06-14T12:37:06.734Z,98304.16
2018-06-14T12:39:35.639Z,98298.80
2018-06-14T12:42:04.417Z,98290.28
2018-06-14T12:44:33.313Z,98289.81
2018-06-14T12:47:02.109Z,98291.73
2018-06-14T12:49:33.282Z,98290.68
2018-06-14T12:52:03.164Z,98292.67
2018-06-14T12:54:31.981Z,98289.77
2018-06-14T12:57:00.814Z,98286.16
2018-06-14T12:59:29.524Z,98284.41
2018-06-14T13:01:58.319Z,98279.14
2018-06-14T13:04:27.253Z,98277.51
2018-06-14T13:06:56.105Z,98279.95
2018-06-14T13:09:25.110Z,98273.78
2018-06-14T13:11:53.661Z,98274.95
2018-06-14T13:14:22.436Z,98265.83
2018-06-14T13:16:51.205Z,98265.38
2018-06-14T13:19:19.935Z,98269.72
2018-06-14T13:21:48.633Z,98268.17
2018-06-14T13:24:17.363Z,98263.10
2018-06-14T13:26:46.020Z,98262.13
2018-06-14T13:29:14.757Z,98259.86
2018-06-14T13:31:43.451Z,98255.25
2018-06-14T13:34:12.097Z,98252.99
2018-06-14T13:36:40.798Z,98253.42
2018-06-14T13:39:09.808Z,98249.52
2018-06-14T13:41:38.517Z,98259.77
2018-06-14T13:44:07.173Z,98247.28
2018-06-14T13:46:39.708Z,98245.41
2018-06-14T13:49:08.977Z,98245.41
2018-06-14T13:51:37.478Z,98242.41
2018-06-14T13:54:06.248Z,98243.45
2018-06-14T13:56:34.879Z,98241.45
2018-06-14T13:59:03.853Z,98247.66
2018-06-14T14:01:32.797Z,98241.05
2018-06-14T14:04:01.806Z,98237.59
2018-06-14T14:06:31.114Z,98240.66
2018-06-14T14:08:59.978Z,98232.56
2018-06-14T14:11:29.838Z,98230.95
2018-06-14T14:13:58.661Z,98226.88
2018-06-14T14:16:29.142Z,98227.59
2018-06-14T14:18:57.878Z,98219.92
2018-06-14T14:21:26.665Z,98211.76
2018-06-14T14:23:55.400Z,98218.37
2018-06-14T14:26:25.069Z,98215.34
2018-06-14T14:28:53.673Z,98210.12
2018-06-14T14:31:22.632Z,98217.78
2018-06-14T14:33:51.246Z,98212.52
2018-06-14T14:36:20.012Z,98211.70
2018-06-14T14:38:49.106Z,98203.57
2018-06-14T14:41:17.880Z,98209.18
2018-06-14T14:43:46.537Z,98209.11
2018-06-14T14:46:15.253Z,98204.60
2018-06-14T14:48:43.885Z,98193.95
2018-06-14T14:51:12.548Z,98194.41
2018-06-14T14:53:41.118Z,98198.41
2018-06-14T14:56:10.138Z,98196.80
2018-06-14T14:58:39.014Z,98198.49
2018-06-14T15:01:08.046Z,98202.33
2018-06-14T15:03:36.891Z,98201.63
2018-06-14T15:06:05.582Z,98193.97
2018-06-14T15:08:34.331Z,98187.09
2018-06-14T15:11:03.085Z,98184.61
2018-06-14T15:13:31.852Z,98182.33
2018-06-14T15:16:00.781Z,98174.24
2018-06-14T15:18:29.398Z,98173.38
2018-06-14T15:20:57.994Z,98173.56
2018-06-14T15:23:26.617Z,98175.64
2018-06-14T15:25:55.499Z,98178.31
2018-06-14T15:28:24.377Z,98173.60
2018-06-14T15:30:53.009Z,98179.95
2018-06-14T15:33:21.691Z,98172.67
2018-06-14T15:35:50.619Z,98166.69
2018-06-14T15:38:19.214Z,98170.73
2018-06-14T15:40:47.922Z,98173.83
2018-06-14T15:43:16.630Z,98181.98
2018-06-14T15:45:45.276Z,98170.28
2018-06-14T15:48:14.090Z,98167.34
2018-06-14T15:50:42.795Z,98160.23
2018-06-14T15:53:11.449Z,98161.46
2018-06-14T15:56:02.997Z,98156.53
2018-06-14T15:58:32.152Z,98159.47
2018-06-14T16:01:00.877Z,98152.48
2018-06-14T16:03:29.611Z,98154.58
2018-06-14T16:05:58.385Z,98156.11
2018-06-14T16:08:26.995Z,98152.91
2018-06-14T16:10:55.595Z,98154.56
2018-06-14T16:13:24.317Z,98161.86
2018-06-14T16:15:52.896Z,98157.83
2018-06-14T16:18:21.541Z,98168.97
2018-06-14T16:20:50.166Z,98159.68
2018-06-14T16:23:18.806Z,98164.00
2018-06-14T16:25:47.503Z,98161.53
2018-06-14T16:28:16.263Z,98159.90
2018-06-14T16:30:44.965Z,98161.90
2018-06-14T16:33:13.821Z,98171.42
2018-06-14T16:35:42.868Z,98165.61
2018-06-14T16:38:11.530Z,98169.09
2018-06-14T16:40:40.284Z,98167.64
2018-06-14T16:43:09.061Z,98170.34
2018-06-14T16:45:37.835Z,98171.34
2018-06-14T16:48:06.503Z,98164.63
2018-06-14T16:50:35.219Z,98165.46
2018-06-14T16:53:04.018Z,98167.95
2018-06-14T16:55:32.945Z,98165.58
2018-06-14T16:58:01.670Z,98168.25
2018-06-14T17:00:30.764Z,98168.84
2018-06-14T17:02:59.540Z,98169.50
2018-06-14T17:05:28.298Z,98164.91
2018-06-14T17:07:57.065Z,98164.59
2018-06-14T17:10:25.691Z,98161.22
2018-06-14T17:12:54.359Z,98165.89
2018-06-14T17:15:23.000Z,98168.00
2018-06-14T17:17:51.631Z,98157.27
2018-06-14T17:20:20.429Z,98158.29
2018-06-14T17:22:49.102Z,98159.49
2018-06-14T17:25:17.900Z,98159.17
2018-06-14T17:27:46.724Z,98164.70
2018-06-14T17:30:15.385Z,98159.20
2018-06-14T17:32:44.066Z,98161.56
2018-06-14T17:35:12.697Z,98161.77
2018-06-14T17:37:41.412Z,98167.86
2018-06-14T17:40:10.123Z,98156.98
2018-06-14T17:42:39.002Z,98164.66
2018-06-14T17:45:07.654Z,98167.44
2018-06-14T17:47:36.387Z,98170.86
2018-06-14T17:50:05.216Z,98170.86
2018-06-14T17:52:35.076Z,98173.50
2018-06-14T17:55:04.975Z,98174.42
2018-06-14T17:57:33.911Z,98176.59
2018-06-14T18:00:02.833Z,98183.44
2018-06-14T18:02:31.477Z,98192.71
2018-06-14T18:05:01.211Z,98198.57
2018-06-14T18:07:30.364Z,98191.02
2018-06-14T18:09:59.704Z,98203.56
2018-06-14T18:12:28.640Z,98205.06
2018-06-14T18:14:57.357Z,98208.11
2018-06-14T18:17:31.928Z,98207.44
2018-06-14T18:20:01.230Z,98214.12
2018-06-14T18:22:30.190Z,98217.30
2018-06-14T18:24:59.157Z,98218.25
2018-06-14T18:27:28.545Z,98220.13
2018-06-14T18:29:57.694Z,98229.91
2018-06-14T18:32:26.864Z,98227.34
2018-06-14T18:34:55.774Z,98234.86
2018-06-14T18:37:25.882Z,98237.96
2018-06-14T18:39:54.849Z,98237.02
2018-06-14T18:42:23.543Z,98240.27
2018-06-14T18:44:52.229Z,98243.88
2018-06-14T18:47:20.981Z,98240.98
2018-06-14T18:49:49.866Z,98250.92
2018-06-14T18:52:18.570Z,98243.95
2018-06-14T18:54:48.329Z,98253.52
2018-06-14T18:57:17.264Z,98254.36
2018-06-14T18:59:45.948Z,98255.19
2018-06-14T19:02:14.841Z,98260.70
2018-06-14T19:04:43.533Z,98261.00
2018-06-14T19:07:12.235Z,98263.11
2018-06-14T19:09:40.959Z,98268.93
2018-06-14T19:12:09.586Z,98274.28
2018-06-14T19:14:38.398Z,98274.54
2018-06-14T19:17:07.364Z,98281.88
2018-06-14T19:19:36.114Z,98283.37
2018-06-14T19:22:05.031Z,98282.03
2018-06-14T19:24:33.921Z,98283.02
2018-06-14T19:27:02.568Z,98288.42
2018-06-14T19:29:31.375Z,98293.72
2018-06-14T19:32:00.385Z,98298.63
2018-06-14T19:34:29.555Z,98303.27
2018-06-14T19:36:58.501Z,98307.92
2018-06-14T19:39:27.714Z,98313.57
2018-06-14T19:41:57.972Z,98315.83
2018-06-14T19:44:27.013Z,98317.34
2018-06-14T19:46:56.217Z,98319.58
2018-06-14T19:49:25.271Z,98327.96
2018-06-14T19:51:55.771Z,98330.36
2018-06-14T19:54:25.385Z,98337.77
2018-06-14T19:56:54.174Z,98339.10
2018-06-14T19:59:23.052Z,98345.95
2018-06-14T20:01:51.924Z,98354.24
2018-06-14T20:04:20.643Z,98354.41
2018-06-14T20:06:51.574Z,98355.98
2018-06-14T20:09:20.760Z,98354.13
2018-06-14T20:11:49.632Z,98357.61
2018-06-14T20:14:18.505Z,98354.09
2018-06-14T20:16:47.216Z,98363.11
2018-06-14T20:19:15.953Z,98362.87
2018-06-14T20:21:45.066Z,98368.97
2018-06-14T20:24:13.820Z,98366.47
2018-06-14T20:26:42.679Z,98364.66
2018-06-14T20:29:11.499Z,98371.54
2018-06-14T20:31:40.361Z,98378.48
2018-06-14T20:34:10.071Z,98380.47
2018-06-14T20:36:38.769Z,98382.59
2018-06-14T20:39:10.936Z,98386.80
2018-06-14T20:41:39.700Z,98386.95
2018-06-14T20:44:08.768Z,98383.17
2018-06-14T20:46:37.345Z,98391.84
2018-06-14T20:49:07.291Z,98390.98
2018-06-14T20:51:36.015Z,98386.30
2018-06-14T20:54:04.717Z,98392.30
2018-06-14T20:56:33.551Z,98391.33
2018-06-14T20:59:02.276Z,98394.76
2018-06-14T21:01:31.021Z,98394.76
2018-06-14T21:03:59.783Z,98393.67
2018-06-14T21:06:28.844Z,98400.23
2018-06-14T21:08:57.891Z,98402.09
2018-06-14T21:11:26.613Z,98401.03
2018-06-14T21:13:55.378Z,98403.63
2018-06-14T21:16:24.328Z,98405.28
2018-06-14T21:18:53.038Z,98407.80
2018-06-14T21:21:21.952Z,98409.17
2018-06-14T21:23:50.791Z,98413.37
2018-06-14T21:26:19.620Z,98405.81
2018-06-14T21:28:48.254Z,98407.56
2018-06-14T21:31:17.972Z,98409.64
2018-06-14T21:33:46.806Z,98413.63
2018-06-14T21:36:15.746Z,98408.14
2018-06-14T21:38:44.670Z,98415.61
2018-06-14T21:41:13.651Z,98423.23
2018-06-14T21:43:42.397Z,98416.80
2018-06-14T21:46:11.044Z,98420.64
2018-06-14T21:48:43.966Z,98428.22
2018-06-14T21:51:12.914Z,98423.27
2018-06-14T21:53:41.610Z,98425.83
2018-06-14T21:56:10.530Z,98420.40
2018-06-14T21:58:40.379Z,98420.40
2018-06-14T22:01:09.207Z,98419.31
2018-06-14T22:03:43.323Z,98417.89
2018-06-14T22:06:11.976Z,98426.30
2018-06-14T22:08:40.710Z,98421.16
2018-06-14T22:11:09.425Z,98423.65
2018-06-14T22:13:38.111Z,98424.03
2018-06-14T22:16:06.835Z,98428.71
2018-06-14T22:18:35.680Z,98431.75
2018-06-14T22:21:04.578Z,98431.91
2018-06-14T22:23:33.262Z,98432.00
2018-06-14T22:26:02.010Z,98432.81
2018-06-14T22:28:30.839Z,98427.49
2018-06-14T22:30:59.566Z,98428.30
2018-06-14T22:33:39.237Z,98428.11
2018-06-14T22:36:08.134Z,98425.33
2018-06-14T22:38:36.777Z,98426.48
2018-06-14T22:41:05.588Z,98422.87
2018-06-14T22:43:34.315Z,98416.84
2018-06-14T22:46:03.015Z,98419.66
2018-06-14T22:48:31.870Z,98415.06
2018-06-14T22:51:11.656Z,98420.53
2018-06-14T22:53:40.426Z,98418.88
2018-06-14T22:56:09.295Z,98413.86
2018-06-14T22:58:37.971Z,98411.44
2018-06-14T23:01:44.389Z,98408.25
2018-06-14T23:04:14.379Z,98412.42
2018-06-14T23:06:43.087Z,98402.89
2018-06-14T23:10:36.900Z,98405.61
2018-06-14T23:13:06.349Z,98408.21
2018-06-14T23:15:35.123Z,98404.20
2018-06-14T23:18:03.932Z,98405.98
2018-06-14T23:20:33.438Z,98407.32
2018-06-14T23:23:02.647Z,98408.72
2018-06-14T23:25:31.783Z,98406.55
2018-06-14T23:28:00.628Z,98402.41
2018-06-14T23:30:29.451Z,98402.73
2018-06-14T23:32:58.299Z,98403.22
2018-06-14T23:35:27.021Z,98400.47
2018-06-14T23:37:55.665Z,98402.60
2018-06-14T23:40:24.573Z,98407.63
2018-06-14T23:42:53.286Z,98407.06
2018-06-14T23:45:22.235Z,98405.22
2018-06-14T23:47:50.955Z,98405.12
2018-06-14T23:50:19.871Z,98404.97
2018-06-14T23:52:48.604Z,98407.58
2018-06-14T23:55:17.245Z,98395.73
2018-06-14T23:57:45.953Z,98396.06
